createdAt,value
2023-03-18T00:00:43.672Z,54.30
2023-03-18T00:03:11.316Z,54.51
2023-03-18T00:05:38.581Z,53.98
2023-03-18T00:08:08.348Z,54.30
2023-03-18T00:10:35.495Z,54.85
2023-03-18T00:13:04.628Z,54.26
2023-03-18T00:15:32.325Z,53.96
2023-03-18T00:18:01.781Z,54.37
2023-03-18T00:20:46.678Z,54.49
2023-03-18T00:23:16.245Z,54.13
2023-03-18T00:25:43.078Z,54.07
2023-03-18T00:28:09.817Z,54.05
2023-03-18T00:30:42.775Z,53.46
2023-03-18T00:33:11.133Z,54.11
2023-03-18T00:35:38.300Z,54.30
2023-03-18T00:38:07.635Z,54.48
2023-03-18T00:40:53.258Z,54.33
2023-03-18T00:43:29.400Z,55.36
2023-03-18T00:45:58.324Z,53.94
2023-03-18T00:48:32.516Z,54.80
2023-03-18T00:50:59.125Z,53.59
2023-03-18T00:53:31.716Z,54.26
2023-03-18T00:55:58.786Z,54.66
2023-03-18T00:58:25.856Z,55.12
2023-03-18T01:00:52.764Z,55.36
2023-03-18T01:03:19.834Z,55.42
2023-03-18T01:05:57.503Z,54.82
2023-03-18T01:08:24.905Z,54.84
2023-03-18T01:10:51.544Z,55.36
2023-03-18T01:13:18.214Z,55.20
2023-03-18T01:15:45.271Z,55.14
2023-03-18T01:18:15.404Z,55.01
2023-03-18T01:20:44.850Z,55.65
2023-03-18T01:23:12.811Z,55.04
2023-03-18T01:25:40.109Z,56.00
2023-03-18T01:28:07.289Z,56.09
2023-03-18T01:30:36.700Z,56.53
2023-03-18T01:33:04.841Z,55.86
2023-03-18T01:35:32.904Z,56.01
2023-03-18T01:40:35.574Z,55.47
2023-03-18T01:43:16.865Z,55.83
2023-03-18T01:45:49.644Z,55.63
2023-03-18T01:48:18.941Z,55.71
2023-03-18T01:50:49.526Z,55.52
2023-03-18T01:53:18.257Z,55.43
2023-03-18T01:55:50.936Z,55.09
2023-03-18T01:58:28.020Z,55.34
2023-03-18T02:01:05.336Z,55.69
2023-03-18T02:03:34.433Z,54.41
2023-03-18T02:06:04.591Z,55.74
2023-03-18T02:08:31.446Z,55.74
2023-03-18T02:10:58.323Z,55.96
2023-03-18T02:13:26.646Z,55.81
2023-03-18T02:16:01.908Z,55.60
2023-03-18T02:18:34.545Z,54.95
2023-03-18T02:21:12.801Z,55.31
2023-03-18T02:24:09.722Z,55.71
2023-03-18T02:27:01.454Z,55.99
2023-03-18T02:29:31.659Z,55.06
2023-03-18T02:32:07.982Z,55.48
2023-03-18T02:34:36.265Z,55.56
2023-03-18T02:37:03.230Z,56.44
2023-03-18T02:39:34.928Z,56.44
2023-03-18T02:42:11.131Z,56.22
2023-03-18T02:44:45.320Z,55.63
2023-03-18T02:47:17.232Z,56.12
2023-03-18T02:49:50.635Z,55.66
2023-03-18T02:52:20.189Z,55.83
2023-03-18T02:54:46.941Z,55.74
2023-03-18T02:57:13.648Z,55.77
2023-03-18T02:59:40.253Z,54.19
2023-03-18T03:02:07.738Z,55.47
2023-03-18T03:04:34.744Z,55.53
2023-03-18T03:07:04.998Z,54.65
2023-03-18T03:09:31.683Z,55.25
2023-03-18T03:11:58.306Z,55.42
2023-03-18T03:14:24.995Z,55.05
2023-03-18T03:16:52.056Z,54.37
2023-03-18T03:19:22.490Z,54.58
2023-03-18T03:21:52.419Z,55.89
2023-03-18T03:24:19.490Z,55.65
2023-03-18T03:26:46.084Z,55.32
2023-03-18T03:29:13.045Z,55.88
2023-03-18T03:31:39.690Z,55.88
2023-03-18T03:34:11.704Z,55.88
2023-03-18T03:36:38.397Z,55.98
2023-03-18T03:39:06.280Z,55.08
2023-03-18T03:41:32.913Z,55.41
2023-03-18T03:44:06.521Z,55.96
2023-03-18T03:46:33.633Z,56.59
2023-03-18T03:49:00.369Z,56.24
2023-03-18T03:51:30.760Z,56.45
2023-03-18T03:53:57.599Z,55.55
2023-03-18T03:56:24.217Z,56.60
2023-03-18T03:58:50.866Z,56.38
2023-03-18T04:01:17.607Z,57.86
2023-03-18T04:03:44.708Z,57.55
2023-03-18T04:06:11.461Z,57.21
2023-03-18T04:08:41.296Z,57.47
2023-03-18T04:11:07.943Z,58.09
2023-03-18T04:13:34.919Z,56.31
2023-03-18T04:16:01.670Z,56.45
2023-03-18T04:18:28.379Z,57.11
2023-03-18T04:20:55.181Z,55.89
2023-03-18T04:23:22.184Z,56.68
2023-03-18T04:25:49.404Z,56.62
2023-03-18T04:28:16.502Z,56.40
2023-03-18T04:30:43.160Z,55.47
2023-03-18T04:33:13.249Z,56.59
2023-03-18T04:35:41.351Z,56.20
2023-03-18T04:38:08.128Z,55.95
2023-03-18T04:40:34.818Z,56.33
2023-03-18T04:43:02.296Z,56.17
2023-03-18T04:45:34.775Z,56.63
2023-03-18T04:48:01.803Z,57.17
2023-03-18T04:50:29.471Z,57.09
2023-03-18T04:52:56.168Z,57.54
2023-03-18T04:55:22.984Z,57.46
2023-03-18T04:57:50.610Z,57.53
2023-03-18T05:00:21.557Z,58.00
2023-03-18T05:02:48.836Z,57.82
2023-03-18T05:05:15.932Z,57.65
2023-03-18T05:07:43.363Z,57.66
2023-03-18T05:10:10.878Z,58.00
2023-03-18T05:12:38.164Z,58.34
2023-03-18T05:15:06.700Z,58.91
2023-03-18T05:17:33.871Z,57.78
2023-03-18T05:20:00.668Z,58.52
2023-03-18T05:22:27.629Z,58.55
2023-03-18T05:24:54.286Z,58.65
2023-03-18T05:27:21.149Z,58.71
2023-03-18T05:29:48.447Z,58.20
2023-03-18T05:32:15.388Z,58.67
2023-03-18T05:34:42.574Z,58.63
2023-03-18T05:37:12.066Z,59.27
2023-03-18T05:39:39.564Z,60.11
2023-03-18T05:42:06.579Z,60.73
2023-03-18T05:44:34.599Z,60.82
2023-03-18T05:47:02.790Z,60.95
2023-03-18T05:49:29.573Z,61.25
2023-03-18T05:51:56.237Z,61.45
2023-03-18T05:54:23.302Z,61.87
2023-03-18T05:56:52.503Z,61.72
2023-03-18T05:59:19.944Z,61.78
2023-03-18T06:01:47.052Z,62.12
2023-03-18T06:04:13.813Z,62.46
2023-03-18T06:06:41.178Z,63.43
2023-03-18T06:09:09.475Z,61.79
2023-03-18T06:11:39.727Z,62.38
2023-03-18T06:14:18.999Z,62.04
2023-03-18T06:16:46.578Z,62.46
2023-03-18T06:19:13.312Z,62.90
2023-03-18T06:21:40.585Z,62.81
2023-03-18T06:24:13.663Z,62.19
2023-03-18T06:26:41.129Z,61.45
2023-03-18T06:29:08.056Z,62.11
2023-03-18T06:31:35.557Z,62.05
2023-03-18T06:34:02.783Z,61.25
2023-03-18T06:36:29.403Z,60.91
2023-03-18T06:38:56.437Z,61.20
2023-03-18T06:41:23.571Z,60.39
2023-03-18T06:43:51.820Z,61.52
2023-03-18T06:46:18.854Z,61.86
2023-03-18T06:48:46.098Z,61.80
2023-03-18T06:51:13.551Z,62.43
2023-03-18T06:53:40.224Z,61.74
2023-03-18T06:56:08.627Z,61.12
2023-03-18T06:58:35.418Z,61.42
2023-03-18T07:01:03.148Z,61.38
2023-03-18T07:03:30.132Z,62.53
2023-03-18T07:05:57.336Z,62.93
2023-03-18T07:08:24.307Z,62.41
2023-03-18T07:10:57.004Z,62.69
2023-03-18T07:13:24.156Z,60.10
2023-03-18T07:15:54.493Z,59.74
2023-03-18T07:18:21.876Z,59.44
2023-03-18T07:20:49.268Z,58.87
2023-03-18T07:23:16.254Z,57.13
2023-03-18T07:25:44.814Z,56.14
2023-03-18T07:28:11.578Z,55.64
2023-03-18T07:30:39.384Z,56.72
2023-03-18T07:33:06.426Z,57.57
2023-03-18T07:35:35.893Z,55.23
2023-03-18T07:38:03.342Z,56.16
2023-03-18T07:40:37.757Z,56.12
2023-03-18T07:43:05.685Z,58.56
2023-03-18T07:45:32.871Z,57.97
2023-03-18T07:48:05.917Z,55.56
2023-03-18T07:50:32.881Z,54.36
2023-03-18T07:52:59.861Z,54.82
2023-03-18T07:55:26.670Z,55.59
2023-03-18T07:57:53.990Z,54.10
2023-03-18T08:00:21.408Z,52.50
2023-03-18T08:02:48.087Z,52.42
2023-03-18T08:05:15.972Z,52.77
2023-03-18T08:07:44.070Z,52.76
2023-03-18T08:10:11.605Z,52.05
2023-03-18T08:12:52.725Z,50.96
2023-03-18T08:15:21.180Z,51.42
2023-03-18T08:17:52.789Z,50.90
2023-03-18T08:20:20.269Z,50.79
2023-03-18T08:22:46.944Z,51.31
2023-03-18T08:25:13.753Z,50.16
2023-03-18T08:27:40.394Z,50.53
2023-03-18T08:30:08.447Z,49.81
2023-03-18T08:32:35.770Z,49.75
2023-03-18T08:35:02.743Z,50.44
2023-03-18T08:37:29.425Z,48.79
2023-03-18T08:39:56.084Z,48.98
2023-03-18T08:42:22.725Z,49.35
2023-03-18T08:44:51.140Z,48.09
2023-03-18T08:47:17.869Z,48.49
2023-03-18T08:49:44.883Z,47.92
2023-03-18T08:52:11.923Z,48.47
2023-03-18T08:54:41.726Z,50.49
2023-03-18T08:57:09.084Z,49.76
2023-03-18T08:59:36.674Z,51.35
2023-03-18T09:02:05.164Z,50.21
2023-03-18T09:04:32.804Z,51.67
2023-03-18T09:07:01.475Z,50.60
2023-03-18T09:09:42.692Z,50.60
2023-03-18T09:12:12.054Z,48.73
2023-03-18T09:14:47.157Z,48.33
2023-03-18T09:17:17.441Z,47.16
2023-03-18T09:19:44.107Z,49.13
2023-03-18T09:22:11.373Z,49.92
2023-03-18T09:24:38.042Z,48.81
2023-03-18T09:27:13.855Z,49.73
2023-03-18T09:29:40.880Z,47.37
2023-03-18T09:32:08.477Z,47.80
2023-03-18T09:34:35.572Z,49.15
2023-03-18T09:37:02.281Z,46.80
2023-03-18T09:39:29.152Z,45.76
2023-03-18T09:42:23.664Z,44.54
2023-03-18T09:44:57.864Z,43.14
2023-03-18T09:48:00.862Z,41.55
2023-03-18T09:50:58.232Z,44.84
2023-03-18T09:53:40.279Z,45.24
2023-03-18T09:56:16.879Z,47.11
2023-03-18T09:59:04.747Z,47.65
2023-03-18T10:01:36.257Z,46.90
2023-03-18T10:04:26.740Z,45.53
2023-03-18T10:07:02.979Z,46.30
2023-03-18T10:09:42.479Z,47.84
2023-03-18T10:12:23.965Z,43.03
2023-03-18T10:15:00.138Z,42.38
2023-03-18T10:17:35.643Z,40.99
2023-03-18T10:20:15.548Z,43.38
2023-03-18T10:23:03.157Z,41.06
2023-03-18T10:25:48.879Z,40.39
2023-03-18T10:28:38.209Z,41.50
2023-03-18T10:31:35.846Z,43.12
2023-03-18T10:34:09.652Z,44.43
2023-03-18T10:37:04.162Z,42.99
2023-03-18T10:39:31.626Z,44.78
2023-03-18T10:42:02.556Z,44.70
2023-03-18T10:44:37.075Z,44.41
2023-03-18T10:47:10.306Z,43.76
2023-03-18T10:49:44.787Z,43.22
2023-03-18T10:52:19.207Z,43.28
2023-03-18T10:54:53.224Z,45.17
2023-03-18T10:57:25.672Z,45.32
2023-03-18T10:59:53.272Z,44.99
2023-03-18T11:02:30.709Z,46.66
2023-03-18T11:05:04.773Z,44.97
2023-03-18T11:07:32.320Z,45.39
2023-03-18T11:10:23.115Z,44.16
2023-03-18T11:12:50.691Z,45.36
2023-03-18T11:15:20.561Z,44.60
2023-03-18T11:17:50.514Z,45.21
2023-03-18T11:20:37.482Z,44.87
2023-03-18T11:23:17.708Z,44.26
2023-03-18T11:25:48.987Z,45.75
2023-03-18T11:28:30.206Z,43.74
2023-03-18T11:31:00.525Z,44.17
2023-03-18T11:33:33.391Z,44.01
2023-03-18T11:36:07.302Z,44.44
2023-03-18T11:38:36.649Z,43.40
2023-03-18T11:41:16.199Z,44.45
2023-03-18T11:44:02.132Z,44.59
2023-03-18T11:46:51.261Z,43.87
2023-03-18T11:49:25.622Z,43.96
2023-03-18T11:52:02.491Z,43.69
2023-03-18T11:54:52.137Z,43.97
2023-03-18T11:57:21.309Z,42.06
2023-03-18T12:00:04.506Z,42.93
2023-03-18T12:02:51.727Z,42.60
2023-03-18T12:06:05.838Z,44.26
2023-03-18T12:08:50.793Z,44.30
2023-03-18T12:11:47.317Z,45.34
2023-03-18T12:14:30.964Z,45.44
2023-03-18T12:17:51.947Z,45.69
2023-03-18T12:20:43.153Z,45.95
2023-03-18T12:23:16.299Z,46.09
2023-03-18T12:25:58.229Z,45.37
2023-03-18T12:28:28.171Z,45.94
2023-03-18T12:31:14.286Z,46.20
2023-03-18T12:34:15.022Z,47.38
2023-03-18T12:36:58.045Z,46.55
2023-03-18T12:40:16.554Z,45.43
2023-03-18T12:43:07.311Z,44.17
2023-03-18T12:45:39.766Z,43.49
2023-03-18T12:48:15.611Z,42.94
2023-03-18T12:50:54.747Z,44.62
2023-03-18T12:53:39.523Z,44.91
2023-03-18T12:56:18.245Z,45.35
2023-03-18T12:59:03.959Z,43.66
2023-03-18T13:01:56.885Z,44.33
2023-03-18T13:04:30.054Z,44.70
2023-03-18T13:07:16.576Z,43.35
2023-03-18T13:10:26.099Z,45.25
2023-03-18T13:13:01.708Z,44.90
2023-03-18T13:15:34.371Z,46.14
2023-03-18T13:18:28.037Z,44.72
2023-03-18T13:20:58.798Z,45.05
2023-03-18T13:23:45.059Z,44.41
2023-03-18T13:26:42.255Z,45.51
2023-03-18T13:29:52.077Z,45.36
2023-03-18T13:32:46.859Z,46.40
2023-03-18T13:35:22.390Z,45.95
2023-03-18T13:38:19.397Z,44.66
2023-03-18T13:41:07.172Z,46.08
2023-03-18T13:43:35.556Z,45.08
2023-03-18T13:46:06.215Z,46.41
2023-03-18T13:48:38.097Z,46.42
2023-03-18T13:51:24.453Z,46.87
2023-03-18T13:53:55.005Z,47.05
2023-03-18T13:56:47.640Z,48.41
2023-03-18T13:59:33.066Z,46.96
2023-03-18T14:02:33.239Z,48.78
2023-03-18T14:05:03.046Z,49.51
2023-03-18T14:07:33.363Z,49.10
2023-03-18T14:10:18.401Z,48.00
2023-03-18T14:12:50.304Z,48.88
2023-03-18T14:15:45.011Z,49.77
2023-03-18T14:18:26.002Z,49.00
2023-03-18T14:20:59.034Z,50.25
2023-03-18T14:23:40.009Z,49.76
2023-03-18T14:26:24.353Z,48.83
2023-03-18T14:29:14.375Z,48.63
2023-03-18T14:31:50.175Z,49.67
2023-03-18T14:34:19.567Z,49.32
2023-03-18T14:37:05.086Z,50.02
2023-03-18T14:39:56.002Z,51.33
2023-03-18T14:42:58.556Z,50.72
2023-03-18T14:45:33.952Z,49.96
2023-03-18T14:48:05.600Z,49.55
2023-03-18T14:50:45.415Z,51.56
2023-03-18T14:53:15.638Z,50.88
2023-03-18T14:55:43.434Z,49.76
2023-03-18T14:58:18.398Z,50.27
2023-03-18T15:00:51.241Z,50.51
2023-03-18T15:03:32.421Z,49.92
2023-03-18T15:06:01.766Z,50.75
2023-03-18T15:08:47.710Z,50.63
2023-03-18T15:11:21.560Z,50.48
2023-03-18T15:13:48.257Z,51.23
2023-03-18T15:16:21.998Z,50.39
2023-03-18T15:18:54.506Z,50.93
2023-03-18T15:21:32.822Z,50.48
2023-03-18T15:24:07.721Z,51.77
2023-03-18T15:26:38.669Z,51.17
2023-03-18T15:29:29.592Z,51.21
2023-03-18T15:32:26.541Z,50.48
2023-03-18T15:34:56.113Z,50.54
2023-03-18T15:37:41.191Z,51.94
2023-03-18T15:40:33.892Z,51.40
2023-03-18T15:43:32.791Z,52.08
2023-03-18T15:46:15.469Z,52.55
2023-03-18T15:48:54.903Z,52.55
2023-03-18T15:51:30.084Z,53.51
2023-03-18T15:54:16.299Z,52.17
2023-03-18T15:56:49.180Z,51.25
2023-03-18T15:59:23.193Z,52.20
2023-03-18T16:01:49.971Z,52.92
2023-03-18T16:04:18.814Z,53.62
2023-03-18T16:06:45.680Z,53.57
2023-03-18T16:09:17.637Z,55.32
2023-03-18T16:11:48.564Z,55.21
2023-03-18T16:14:17.762Z,55.57
2023-03-18T16:16:47.812Z,54.89
2023-03-18T16:19:28.606Z,55.36
2023-03-18T16:21:57.272Z,55.27
2023-03-18T16:24:24.921Z,53.92
2023-03-18T16:26:55.749Z,52.31
2023-03-18T16:29:35.358Z,53.87
2023-03-18T16:32:02.291Z,56.62
2023-03-18T16:34:29.034Z,52.00
2023-03-18T16:36:57.169Z,53.16
2023-03-18T16:39:34.146Z,54.45
2023-03-18T16:42:02.437Z,55.42
2023-03-18T16:44:36.133Z,55.91
2023-03-18T16:47:02.766Z,57.09
2023-03-18T16:49:36.757Z,57.58
2023-03-18T16:52:03.596Z,58.54
2023-03-18T16:54:32.720Z,58.97
2023-03-18T16:57:04.530Z,60.40
2023-03-18T16:59:37.041Z,60.80
2023-03-18T17:02:04.864Z,61.40
2023-03-18T17:04:34.497Z,62.10
2023-03-18T17:07:10.705Z,62.97
2023-03-18T17:09:38.795Z,63.91
2023-03-18T17:12:08.076Z,64.62
2023-03-18T17:14:42.697Z,65.11
2023-03-18T17:17:38.218Z,67.80
2023-03-18T17:20:15.956Z,69.07
2023-03-18T17:22:45.238Z,68.99
2023-03-18T17:25:12.104Z,68.79
2023-03-18T17:27:48.333Z,71.17
2023-03-18T17:30:32.575Z,69.80
2023-03-18T17:33:00.942Z,70.28
2023-03-18T17:35:27.802Z,70.23
2023-03-18T17:37:57.997Z,70.26
2023-03-18T17:40:33.195Z,71.42
2023-03-18T17:43:01.342Z,73.02
2023-03-18T17:45:34.527Z,73.00
2023-03-18T17:48:10.318Z,72.69
2023-03-18T17:50:40.120Z,72.79
2023-03-18T17:53:06.942Z,73.09
2023-03-18T17:55:33.909Z,73.33
2023-03-18T17:58:10.810Z,75.54
2023-03-18T18:00:37.627Z,76.16
2023-03-18T18:03:06.712Z,75.89
2023-03-18T18:05:33.611Z,75.22
2023-03-18T18:08:00.359Z,76.00
2023-03-18T18:10:27.260Z,75.65
2023-03-18T18:12:56.874Z,75.86
2023-03-18T18:15:26.826Z,75.95
2023-03-18T18:17:54.467Z,76.07
2023-03-18T18:20:25.486Z,77.12
2023-03-18T18:22:55.464Z,78.12
2023-03-18T18:25:27.755Z,78.63
2023-03-18T18:27:57.229Z,78.28
2023-03-18T18:30:25.019Z,78.58
2023-03-18T18:32:52.004Z,79.48
2023-03-18T18:35:22.046Z,78.96
2023-03-18T18:37:50.330Z,78.28
2023-03-18T18:40:18.082Z,78.35
2023-03-18T18:42:44.941Z,78.32
2023-03-18T18:45:21.599Z,78.95
2023-03-18T18:47:48.341Z,78.84
2023-03-18T18:50:21.580Z,80.02
2023-03-18T18:52:48.322Z,80.64
2023-03-18T18:55:24.307Z,79.44
2023-03-18T18:57:52.057Z,79.76
2023-03-18T19:00:23.969Z,79.92
2023-03-18T19:02:53.840Z,80.06
2023-03-18T19:05:21.792Z,80.26
2023-03-18T19:07:49.863Z,79.83
2023-03-18T19:10:19.368Z,80.64
2023-03-18T19:12:46.405Z,81.17
2023-03-18T19:15:15.890Z,81.00
2023-03-18T19:17:43.476Z,81.22
2023-03-18T19:20:30.194Z,80.59
2023-03-18T19:23:02.633Z,80.01
2023-03-18T19:25:31.366Z,79.36
2023-03-18T19:27:58.754Z,78.65
2023-03-18T19:30:26.913Z,78.52
2023-03-18T19:32:53.701Z,79.11
2023-03-18T19:35:20.516Z,79.16
2023-03-18T19:37:47.931Z,78.59
2023-03-18T19:40:20.862Z,79.37
2023-03-18T19:42:47.572Z,79.55
2023-03-18T19:45:14.627Z,79.76
2023-03-18T19:47:42.160Z,79.50
2023-03-18T19:50:20.664Z,80.15
2023-03-18T19:52:47.446Z,80.71
2023-03-18T19:55:15.883Z,81.02
2023-03-18T19:57:48.271Z,80.71
2023-03-18T20:00:23.669Z,80.90
2023-03-18T20:02:51.030Z,80.24
2023-03-18T20:05:21.432Z,80.18
2023-03-18T20:07:50.176Z,80.20
2023-03-18T20:10:18.482Z,80.18
2023-03-18T20:12:50.197Z,80.17
2023-03-18T20:15:18.711Z,80.30
2023-03-18T20:17:47.167Z,79.90
2023-03-18T20:20:19.395Z,79.84
2023-03-18T20:22:59.408Z,79.61
2023-03-18T20:25:36.825Z,79.22
2023-03-18T20:28:04.797Z,78.30
2023-03-18T20:30:34.232Z,78.51
2023-03-18T20:33:05.209Z,78.32
2023-03-18T20:35:37.484Z,78.46
2023-03-18T20:38:10.099Z,77.90
2023-03-18T20:40:41.226Z,77.78
2023-03-18T20:43:13.222Z,77.08
2023-03-18T20:45:39.864Z,76.95
2023-03-18T20:48:06.877Z,76.79
2023-03-18T20:50:33.497Z,75.00
2023-03-18T20:53:04.458Z,75.15
2023-03-18T20:55:33.287Z,75.74
2023-03-18T20:58:01.547Z,75.63
2023-03-18T21:00:32.126Z,75.77
2023-03-18T21:03:01.483Z,75.61
2023-03-18T21:05:28.181Z,75.30
2023-03-18T21:07:54.870Z,75.00
2023-03-18T21:10:27.434Z,74.27
2023-03-18T21:12:54.092Z,74.53
2023-03-18T21:15:24.269Z,73.60
2023-03-18T21:17:51.048Z,72.37
2023-03-18T21:20:22.629Z,72.35
2023-03-18T21:22:50.871Z,72.32
2023-03-18T21:25:22.979Z,72.01
2023-03-18T21:27:50.126Z,72.42
2023-03-18T21:30:19.254Z,73.34
2023-03-18T21:32:46.414Z,71.61
2023-03-18T21:35:23.504Z,71.29
2023-03-18T21:37:50.858Z,71.53
2023-03-18T21:40:25.124Z,70.56
2023-03-18T21:42:52.382Z,70.94
2023-03-18T21:45:21.610Z,71.06
2023-03-18T21:47:48.393Z,70.34
2023-03-18T21:50:26.279Z,71.33
2023-03-18T21:52:54.500Z,71.77
2023-03-18T21:55:21.784Z,72.00
2023-03-18T21:57:51.612Z,72.44
2023-03-18T22:00:20.314Z,72.96
2023-03-18T22:02:47.951Z,73.66
2023-03-18T22:05:18.960Z,73.58
2023-03-18T22:07:46.208Z,74.16
2023-03-18T22:10:16.546Z,74.77
2023-03-18T22:12:44.089Z,75.44
2023-03-18T22:15:34.067Z,76.58
2023-03-18T22:18:01.025Z,76.86
2023-03-18T22:20:28.071Z,77.60
2023-03-18T22:22:54.936Z,77.38
2023-03-18T22:25:32.897Z,78.08
2023-03-18T22:28:00.348Z,78.46
2023-03-18T22:30:29.689Z,78.86
2023-03-18T22:32:58.372Z,78.92
2023-03-18T22:35:27.873Z,79.47
2023-03-18T22:38:00.735Z,79.80
2023-03-18T22:40:31.920Z,80.11
2023-03-18T22:43:02.476Z,80.44
2023-03-18T22:45:33.790Z,80.23
2023-03-18T22:48:04.556Z,80.14
2023-03-18T22:50:33.941Z,80.35
2023-03-18T22:53:02.708Z,80.37
2023-03-18T22:55:34.871Z,80.78
2023-03-18T22:58:01.927Z,80.65
2023-03-18T23:00:40.168Z,81.07
2023-03-18T23:03:13.738Z,81.64
2023-03-18T23:05:40.424Z,82.22
2023-03-18T23:08:07.061Z,82.02
2023-03-18T23:10:33.687Z,82.81
2023-03-18T23:13:00.324Z,83.53
2023-03-18T23:15:26.947Z,83.28
2023-03-18T23:17:53.577Z,83.54
2023-03-18T23:20:20.299Z,83.61
2023-03-18T23:22:47.004Z,83.50
2023-03-18T23:25:17.894Z,83.74
2023-03-18T23:27:45.552Z,83.98
2023-03-18T23:30:13.618Z,84.13
2023-03-18T23:32:41.189Z,84.46
2023-03-18T23:35:08.778Z,84.60
2023-03-18T23:37:35.828Z,84.47
2023-03-18T23:40:03.258Z,85.18
2023-03-18T23:42:29.965Z,85.75
2023-03-18T23:44:56.683Z,85.21
2023-03-18T23:47:23.385Z,85.45
2023-03-18T23:49:50.121Z,85.34
2023-03-18T23:52:16.918Z,85.37
2023-03-18T23:54:43.576Z,85.40
2023-03-18T23:57:11.774Z,85.89
2023-03-18T23:59:38.683Z,85.58
